sensor_id;sensor_type;location;lat;lon;timestamp;temperature;humidity
5930;DHT22;2990;48.746;9.236;2023-09-30T00:00:36;16.70;1.00
5930;DHT22;2990;48.746;9.236;2023-09-30T00:03:02;16.70;1.00
5930;DHT22;2990;48.746;9.236;2023-09-30T00:05:27;16.60;1.00
5930;DHT22;2990;48.746;9.236;2023-09-30T00:07:53;16.60;99.90
5930;DHT22;2990;48.746;9.236;2023-09-30T00:10:18;16.60;1.00
5930;DHT22;2990;48.746;9.236;2023-09-30T00:12:44;16.60;91.70
5930;DHT22;2990;48.746;9.236;2023-09-30T00:15:11;16.60;99.90
5930;DHT22;2990;48.746;9.236;2023-09-30T00:17:36;16.50;99.90
5930;DHT22;2990;48.746;9.236;2023-09-30T00:20:02;16.50;1.00
5930;DHT22;2990;48.746;9.236;2023-09-30T00:22:29;16.50;1.00
5930;DHT22;2990;48.746;9.236;2023-09-30T00:24:55;16.50;1.00
5930;DHT22;2990;48.746;9.236;2023-09-30T00:27:20;16.40;1.00
5930;DHT22;2990;48.746;9.236;2023-09-30T00:29:46;16.40;99.90
5930;DHT22;2990;48.746;9.236;2023-09-30T00:32:12;16.40;99.90
5930;DHT22;2990;48.746;9.236;2023-09-30T00:34:38;16.40;1.00
5930;DHT22;2990;48.746;9.236;2023-09-30T00:37:03;16.30;1.00
5930;DHT22;2990;48.746;9.236;2023-09-30T00:39:29;16.30;1.00
5930;DHT22;2990;48.746;9.236;2023-09-30T00:41:58;16.20;1.00
5930;DHT22;2990;48.746;9.236;2023-09-30T00:44:27;16.20;1.00
5930;DHT22;2990;48.746;9.236;2023-09-30T00:46:54;16.20;1.00
5930;DHT22;2990;48.746;9.236;2023-09-30T00:49:24;16.20;1.00
5930;DHT22;2990;48.746;9.236;2023-09-30T00:51:51;16.20;1.00
5930;DHT22;2990;48.746;9.236;2023-09-30T00:54:17;16.10;99.90
5930;DHT22;2990;48.746;9.236;2023-09-30T00:56:44;16.10;99.90
5930;DHT22;2990;48.746;9.236;2023-09-30T00:59:14;16.10;99.90
5930;DHT22;2990;48.746;9.236;2023-09-30T01:01:44;16.10;99.90
5930;DHT22;2990;48.746;9.236;2023-09-30T01:04:11;16.10;1.00
5930;DHT22;2990;48.746;9.236;2023-09-30T01:06:37;16.00;1.00
5930;DHT22;2990;48.746;9.236;2023-09-30T01:09:03;16.00;1.00
5930;DHT22;2990;48.746;9.236;2023-09-30T01:11:29;16.00;1.00
5930;DHT22;2990;48.746;9.236;2023-09-30T01:13:55;16.00;1.00
5930;DHT22;2990;48.746;9.236;2023-09-30T01:16:21;16.00;1.00
5930;DHT22;2990;48.746;9.236;2023-09-30T01:52:57;15.90;1.00
5930;DHT22;2990;48.746;9.236;2023-09-30T01:55:22;15.80;1.00
5930;DHT22;2990;48.746;9.236;2023-09-30T01:57:48;15.80;1.00
5930;DHT22;2990;48.746;9.236;2023-09-30T02:00:13;15.80;1.00
5930;DHT22;2990;48.746;9.236;2023-09-30T02:02:39;15.80;1.00
5930;DHT22;2990;48.746;9.236;2023-09-30T02:05:05;15.80;1.00
5930;DHT22;2990;48.746;9.236;2023-09-30T02:07:33;15.90;1.00
5930;DHT22;2990;48.746;9.236;2023-09-30T02:09:59;15.90;1.00
5930;DHT22;2990;48.746;9.236;2023-09-30T02:12:26;15.80;1.00
5930;DHT22;2990;48.746;9.236;2023-09-30T02:14:53;15.80;1.00
5930;DHT22;2990;48.746;9.236;2023-09-30T02:17:19;15.70;1.00
5930;DHT22;2990;48.746;9.236;2023-09-30T02:19:44;15.70;1.00
5930;DHT22;2990;48.746;9.236;2023-09-30T02:22:10;15.60;1.00
5930;DHT22;2990;48.746;9.236;2023-09-30T02:24:36;15.50;1.00
5930;DHT22;2990;48.746;9.236;2023-09-30T02:27:01;15.50;1.00
5930;DHT22;2990;48.746;9.236;2023-09-30T02:29:27;15.40;1.00
5930;DHT22;2990;48.746;9.236;2023-09-30T02:31:54;15.40;1.00
5930;DHT22;2990;48.746;9.236;2023-09-30T02:34:20;15.30;1.00
5930;DHT22;2990;48.746;9.236;2023-09-30T02:36:45;15.30;1.00
5930;DHT22;2990;48.746;9.236;2023-09-30T02:39:11;15.30;1.00
5930;DHT22;2990;48.746;9.236;2023-09-30T02:41:36;15.20;1.00
5930;DHT22;2990;48.746;9.236;2023-09-30T02:44:03;15.20;1.00
5930;DHT22;2990;48.746;9.236;2023-09-30T02:46:29;15.20;1.00
5930;DHT22;2990;48.746;9.236;2023-09-30T02:48:55;15.20;1.00
5930;DHT22;2990;48.746;9.236;2023-09-30T02:51:20;15.20;1.00
5930;DHT22;2990;48.746;9.236;2023-09-30T02:53:46;15.20;1.00
5930;DHT22;2990;48.746;9.236;2023-09-30T02:56:13;15.20;1.00
5930;DHT22;2990;48.746;9.236;2023-09-30T02:58:39;15.30;1.00
5930;DHT22;2990;48.746;9.236;2023-09-30T03:01:06;15.30;1.00
5930;DHT22;2990;48.746;9.236;2023-09-30T03:03:32;15.30;1.00
5930;DHT22;2990;48.746;9.236;2023-09-30T03:05:59;15.30;1.00
5930;DHT22;2990;48.746;9.236;2023-09-30T03:08:26;15.30;1.00
5930;DHT22;2990;48.746;9.236;2023-09-30T03:10:52;15.30;1.00
5930;DHT22;2990;48.746;9.236;2023-09-30T03:13:18;15.30;1.00
5930;DHT22;2990;48.746;9.236;2023-09-30T03:15:44;15.30;1.00
5930;DHT22;2990;48.746;9.236;2023-09-30T03:18:10;15.30;1.00
5930;DHT22;2990;48.746;9.236;2023-09-30T03:20:37;15.20;1.00
5930;DHT22;2990;48.746;9.236;2023-09-30T03:23:06;15.30;1.00
5930;DHT22;2990;48.746;9.236;2023-09-30T03:25:31;15.30;1.00
5930;DHT22;2990;48.746;9.236;2023-09-30T03:27:57;15.20;1.00
5930;DHT22;2990;48.746;9.236;2023-09-30T03:30:23;15.20;1.00
5930;DHT22;2990;48.746;9.236;2023-09-30T03:32:49;15.20;1.00
5930;DHT22;2990;48.746;9.236;2023-09-30T03:35:15;15.30;1.00
5930;DHT22;2990;48.746;9.236;2023-09-30T03:37:45;15.30;1.00
5930;DHT22;2990;48.746;9.236;2023-09-30T03:40:12;15.30;1.00
5930;DHT22;2990;48.746;9.236;2023-09-30T03:42:45;15.30;1.00
5930;DHT22;2990;48.746;9.236;2023-09-30T03:45:12;15.30;1.00
5930;DHT22;2990;48.746;9.236;2023-09-30T03:47:40;15.30;1.00
5930;DHT22;2990;48.746;9.236;2023-09-30T03:50:09;15.30;1.00
5930;DHT22;2990;48.746;9.236;2023-09-30T03:52:40;15.20;1.00
5930;DHT22;2990;48.746;9.236;2023-09-30T03:55:12;15.20;1.00
5930;DHT22;2990;48.746;9.236;2023-09-30T03:57:39;15.10;1.00
5930;DHT22;2990;48.746;9.236;2023-09-30T04:00:05;15.10;1.00
5930;DHT22;2990;48.746;9.236;2023-09-30T04:02:32;15.00;1.00
5930;DHT22;2990;48.746;9.236;2023-09-30T04:04:57;15.00;1.00
5930;DHT22;2990;48.746;9.236;2023-09-30T04:07:24;15.00;1.00
5930;DHT22;2990;48.746;9.236;2023-09-30T04:09:55;14.90;1.00
5930;DHT22;2990;48.746;9.236;2023-09-30T04:12:21;14.90;1.00
5930;DHT22;2990;48.746;9.236;2023-09-30T04:14:49;14.90;1.00
5930;DHT22;2990;48.746;9.236;2023-09-30T04:17:14;14.90;1.00
5930;DHT22;2990;48.746;9.236;2023-09-30T04:19:40;15.00;1.00
5930;DHT22;2990;48.746;9.236;2023-09-30T04:22:05;15.00;1.00
5930;DHT22;2990;48.746;9.236;2023-09-30T04:24:31;14.90;1.00
5930;DHT22;2990;48.746;9.236;2023-09-30T04:26:56;14.90;1.00
5930;DHT22;2990;48.746;9.236;2023-09-30T04:29:28;14.90;1.00
5930;DHT22;2990;48.746;9.236;2023-09-30T04:31:55;14.90;1.00
5930;DHT22;2990;48.746;9.236;2023-09-30T04:34:20;14.90;1.00
5930;DHT22;2990;48.746;9.236;2023-09-30T04:36:47;15.00;1.00
5930;DHT22;2990;48.746;9.236;2023-09-30T04:39:12;14.90;1.00
5930;DHT22;2990;48.746;9.236;2023-09-30T04:41:38;14.90;1.00
5930;DHT22;2990;48.746;9.236;2023-09-30T04:44:07;14.90;1.00
5930;DHT22;2990;48.746;9.236;2023-09-30T04:46:35;14.90;1.00
5930;DHT22;2990;48.746;9.236;2023-09-30T04:49:01;14.90;1.00
5930;DHT22;2990;48.746;9.236;2023-09-30T04:51:28;14.90;1.00
5930;DHT22;2990;48.746;9.236;2023-09-30T04:53:53;15.00;1.00
5930;DHT22;2990;48.746;9.236;2023-09-30T04:56:20;15.00;1.00
5930;DHT22;2990;48.746;9.236;2023-09-30T04:58:46;14.90;1.00
5930;DHT22;2990;48.746;9.236;2023-09-30T05:01:12;14.90;1.00
5930;DHT22;2990;48.746;9.236;2023-09-30T05:03:38;14.90;1.00
5930;DHT22;2990;48.746;9.236;2023-09-30T05:06:03;14.90;1.00
5930;DHT22;2990;48.746;9.236;2023-09-30T05:08:29;14.90;1.00
5930;DHT22;2990;48.746;9.236;2023-09-30T05:10:56;15.00;1.00
5930;DHT22;2990;48.746;9.236;2023-09-30T05:13:22;15.00;1.00
5930;DHT22;2990;48.746;9.236;2023-09-30T05:15:50;15.00;1.00
5930;DHT22;2990;48.746;9.236;2023-09-30T05:18:19;15.00;1.00
5930;DHT22;2990;48.746;9.236;2023-09-30T05:20:44;15.00;1.00
5930;DHT22;2990;48.746;9.236;2023-09-30T05:23:10;14.90;1.00
5930;DHT22;2990;48.746;9.236;2023-09-30T05:25:38;15.00;1.00
5930;DHT22;2990;48.746;9.236;2023-09-30T05:28:05;15.00;1.00
5930;DHT22;2990;48.746;9.236;2023-09-30T05:30:32;15.00;1.00
5930;DHT22;2990;48.746;9.236;2023-09-30T05:32:59;15.00;1.00
5930;DHT22;2990;48.746;9.236;2023-09-30T05:35:25;15.00;1.00
5930;DHT22;2990;48.746;9.236;2023-09-30T05:37:51;15.00;1.00
5930;DHT22;2990;48.746;9.236;2023-09-30T05:40:19;15.00;1.00
5930;DHT22;2990;48.746;9.236;2023-09-30T05:42:51;15.00;1.00
5930;DHT22;2990;48.746;9.236;2023-09-30T05:45:16;14.90;1.00
5930;DHT22;2990;48.746;9.236;2023-09-30T05:47:42;14.90;1.00
5930;DHT22;2990;48.746;9.236;2023-09-30T05:50:09;14.90;1.00
5930;DHT22;2990;48.746;9.236;2023-09-30T05:52:40;14.90;1.00
5930;DHT22;2990;48.746;9.236;2023-09-30T05:55:06;14.90;1.00
5930;DHT22;2990;48.746;9.236;2023-09-30T05:57:32;14.90;1.00
5930;DHT22;2990;48.746;9.236;2023-09-30T05:59:58;15.00;1.00
5930;DHT22;2990;48.746;9.236;2023-09-30T06:02:23;15.00;1.00
5930;DHT22;2990;48.746;9.236;2023-09-30T06:04:50;15.00;1.00
5930;DHT22;2990;48.746;9.236;2023-09-30T06:07:18;15.10;1.00
5930;DHT22;2990;48.746;9.236;2023-09-30T06:09:45;15.00;1.00
5930;DHT22;2990;48.746;9.236;2023-09-30T06:12:12;15.10;1.00
5930;DHT22;2990;48.746;9.236;2023-09-30T06:14:37;15.10;1.00
5930;DHT22;2990;48.746;9.236;2023-09-30T06:17:03;15.10;1.00
5930;DHT22;2990;48.746;9.236;2023-09-30T06:19:29;15.10;1.00
5930;DHT22;2990;48.746;9.236;2023-09-30T06:21:55;15.10;1.00
5930;DHT22;2990;48.746;9.236;2023-09-30T06:24:22;15.10;1.00
5930;DHT22;2990;48.746;9.236;2023-09-30T06:26:47;15.00;1.00
5930;DHT22;2990;48.746;9.236;2023-09-30T06:29:14;15.10;1.00
5930;DHT22;2990;48.746;9.236;2023-09-30T06:31:40;15.10;1.00
5930;DHT22;2990;48.746;9.236;2023-09-30T06:34:05;15.10;1.00
5930;DHT22;2990;48.746;9.236;2023-09-30T06:36:32;15.20;1.00
5930;DHT22;2990;48.746;9.236;2023-09-30T06:38:58;15.20;1.00
5930;DHT22;2990;48.746;9.236;2023-09-30T06:41:24;15.20;1.00
5930;DHT22;2990;48.746;9.236;2023-09-30T06:43:51;15.20;1.00
5930;DHT22;2990;48.746;9.236;2023-09-30T06:46:17;15.30;1.00
5930;DHT22;2990;48.746;9.236;2023-09-30T06:48:42;15.30;1.00
5930;DHT22;2990;48.746;9.236;2023-09-30T06:51:13;15.30;1.00
5930;DHT22;2990;48.746;9.236;2023-09-30T06:53:40;15.40;1.00
5930;DHT22;2990;48.746;9.236;2023-09-30T06:56:06;15.50;1.00
5930;DHT22;2990;48.746;9.236;2023-09-30T06:58:32;15.50;1.00
5930;DHT22;2990;48.746;9.236;2023-09-30T07:00:57;15.60;1.00
5930;DHT22;2990;48.746;9.236;2023-09-30T07:03:23;15.50;1.00
5930;DHT22;2990;48.746;9.236;2023-09-30T07:05:48;15.50;1.00
5930;DHT22;2990;48.746;9.236;2023-09-30T07:08:17;15.50;1.00
5930;DHT22;2990;48.746;9.236;2023-09-30T07:10:44;15.50;1.00
5930;DHT22;2990;48.746;9.236;2023-09-30T07:13:11;15.60;1.00
5930;DHT22;2990;48.746;9.236;2023-09-30T07:15:37;15.60;1.00
5930;DHT22;2990;48.746;9.236;2023-09-30T07:18:03;15.70;1.00
5930;DHT22;2990;48.746;9.236;2023-09-30T07:20:28;15.70;1.00
5930;DHT22;2990;48.746;9.236;2023-09-30T07:22:58;15.70;1.00
5930;DHT22;2990;48.746;9.236;2023-09-30T07:25:24;15.80;1.00
5930;DHT22;2990;48.746;9.236;2023-09-30T07:27:49;15.80;1.00
5930;DHT22;2990;48.746;9.236;2023-09-30T07:30:16;15.80;1.00
5930;DHT22;2990;48.746;9.236;2023-09-30T07:32:42;15.90;1.00
5930;DHT22;2990;48.746;9.236;2023-09-30T07:35:08;15.90;1.00
5930;DHT22;2990;48.746;9.236;2023-09-30T07:37:34;15.90;1.00
5930;DHT22;2990;48.746;9.236;2023-09-30T07:39:59;16.00;1.00
5930;DHT22;2990;48.746;9.236;2023-09-30T07:42:25;15.90;1.00
5930;DHT22;2990;48.746;9.236;2023-09-30T07:44:51;15.90;1.00
5930;DHT22;2990;48.746;9.236;2023-09-30T07:47:17;15.90;1.00
5930;DHT22;2990;48.746;9.236;2023-09-30T07:49:42;15.90;1.00
5930;DHT22;2990;48.746;9.236;2023-09-30T07:52:08;15.90;1.00
5930;DHT22;2990;48.746;9.236;2023-09-30T07:54:34;15.90;1.00
5930;DHT22;2990;48.746;9.236;2023-09-30T07:57:00;16.00;1.00
5930;DHT22;2990;48.746;9.236;2023-09-30T07:59:26;16.10;1.00
5930;DHT22;2990;48.746;9.236;2023-09-30T08:01:51;16.20;99.90
5930;DHT22;2990;48.746;9.236;2023-09-30T08:04:18;16.20;99.90
5930;DHT22;2990;48.746;9.236;2023-09-30T08:06:44;16.20;99.90
5930;DHT22;2990;48.746;9.236;2023-09-30T08:09:12;16.20;99.90
5930;DHT22;2990;48.746;9.236;2023-09-30T08:11:38;16.30;99.90
5930;DHT22;2990;48.746;9.236;2023-09-30T08:14:04;16.40;99.90
5930;DHT22;2990;48.746;9.236;2023-09-30T08:16:38;16.40;95.40
5930;DHT22;2990;48.746;9.236;2023-09-30T08:19:04;16.40;69.00
5930;DHT22;2990;48.746;9.236;2023-09-30T08:21:30;16.40;1.00
5930;DHT22;2990;48.746;9.236;2023-09-30T08:23:56;16.40;1.00
5930;DHT22;2990;48.746;9.236;2023-09-30T08:26:22;16.50;49.00
5930;DHT22;2990;48.746;9.236;2023-09-30T08:28:48;16.70;99.90
5930;DHT22;2990;48.746;9.236;2023-09-30T08:31:13;16.80;1.00
5930;DHT22;2990;48.746;9.236;2023-09-30T08:33:39;16.90;1.00
5930;DHT22;2990;48.746;9.236;2023-09-30T08:36:10;16.80;1.00
5930;DHT22;2990;48.746;9.236;2023-09-30T08:38:37;16.70;99.90
5930;DHT22;2990;48.746;9.236;2023-09-30T08:41:04;16.90;99.90
5930;DHT22;2990;48.746;9.236;2023-09-30T08:43:30;17.00;99.90
5930;DHT22;2990;48.746;9.236;2023-09-30T08:45:59;17.20;99.90
5930;DHT22;2990;48.746;9.236;2023-09-30T08:48:28;17.30;99.90
5930;DHT22;2990;48.746;9.236;2023-09-30T08:50:54;17.40;31.80
5930;DHT22;2990;48.746;9.236;2023-09-30T08:53:20;17.60;99.90
5930;DHT22;2990;48.746;9.236;2023-09-30T08:55:46;17.70;99.90
5930;DHT22;2990;48.746;9.236;2023-09-30T08:58:13;17.70;99.90
5930;DHT22;2990;48.746;9.236;2023-09-30T09:00:39;17.80;99.90
5930;DHT22;2990;48.746;9.236;2023-09-30T09:03:08;17.80;99.90
5930;DHT22;2990;48.746;9.236;2023-09-30T09:05:34;17.80;99.90
5930;DHT22;2990;48.746;9.236;2023-09-30T09:08:00;17.80;1.00
5930;DHT22;2990;48.746;9.236;2023-09-30T09:10:26;18.00;1.00
5930;DHT22;2990;48.746;9.236;2023-09-30T09:12:56;18.20;1.00
5930;DHT22;2990;48.746;9.236;2023-09-30T09:15:28;18.40;99.90
5930;DHT22;2990;48.746;9.236;2023-09-30T09:17:54;18.50;1.00
5930;DHT22;2990;48.746;9.236;2023-09-30T09:20:21;18.60;1.00
5930;DHT22;2990;48.746;9.236;2023-09-30T09:22:49;18.50;99.90
5930;DHT22;2990;48.746;9.236;2023-09-30T09:25:19;18.40;99.90
5930;DHT22;2990;48.746;9.236;2023-09-30T09:27:47;18.40;1.00
5930;DHT22;2990;48.746;9.236;2023-09-30T09:33:04;18.40;99.90
5930;DHT22;2990;48.746;9.236;2023-09-30T09:35:32;18.50;1.00
5930;DHT22;2990;48.746;9.236;2023-09-30T09:38:03;18.60;1.00
5930;DHT22;2990;48.746;9.236;2023-09-30T09:40:31;18.50;99.90
5930;DHT22;2990;48.746;9.236;2023-09-30T09:42:57;18.70;99.90
5930;DHT22;2990;48.746;9.236;2023-09-30T09:45:26;18.90;1.00
5930;DHT22;2990;48.746;9.236;2023-09-30T09:47:55;19.00;1.00
5930;DHT22;2990;48.746;9.236;2023-09-30T09:50:22;19.20;99.90
5930;DHT22;2990;48.746;9.236;2023-09-30T09:52:50;19.30;99.90
5930;DHT22;2990;48.746;9.236;2023-09-30T09:55:21;19.40;1.00
5930;DHT22;2990;48.746;9.236;2023-09-30T09:57:50;19.50;1.00
5930;DHT22;2990;48.746;9.236;2023-09-30T10:00:20;19.70;1.00
5930;DHT22;2990;48.746;9.236;2023-09-30T10:02:46;20.00;99.90
5930;DHT22;2990;48.746;9.236;2023-09-30T10:05:13;20.20;99.90
5930;DHT22;2990;48.746;9.236;2023-09-30T10:07:56;20.10;1.00
5930;DHT22;2990;48.746;9.236;2023-09-30T10:10:23;20.10;1.00
5930;DHT22;2990;48.746;9.236;2023-09-30T10:12:50;20.10;1.00
5930;DHT22;2990;48.746;9.236;2023-09-30T10:18:08;20.00;1.00
5930;DHT22;2990;48.746;9.236;2023-09-30T10:20:39;20.30;1.00
5930;DHT22;2990;48.746;9.236;2023-09-30T10:23:28;20.30;1.00
5930;DHT22;2990;48.746;9.236;2023-09-30T10:26:14;20.20;1.00
5930;DHT22;2990;48.746;9.236;2023-09-30T10:28:44;20.10;1.00
5930;DHT22;2990;48.746;9.236;2023-09-30T10:36:40;20.10;1.00
5930;DHT22;2990;48.746;9.236;2023-09-30T10:39:11;20.00;1.00
5930;DHT22;2990;48.746;9.236;2023-09-30T10:46:55;19.80;1.00
5930;DHT22;2990;48.746;9.236;2023-09-30T10:51:53;20.20;1.00
5930;DHT22;2990;48.746;9.236;2023-09-30T10:54:38;20.50;1.00
5930;DHT22;2990;48.746;9.236;2023-09-30T10:57:03;20.50;1.00
5930;DHT22;2990;48.746;9.236;2023-09-30T10:59:30;20.40;1.00
5930;DHT22;2990;48.746;9.236;2023-09-30T11:01:56;20.60;1.00
5930;DHT22;2990;48.746;9.236;2023-09-30T11:04:22;20.60;99.90
5930;DHT22;2990;48.746;9.236;2023-09-30T11:06:48;20.60;1.00
5930;DHT22;2990;48.746;9.236;2023-09-30T11:09:17;20.50;1.00
5930;DHT22;2990;48.746;9.236;2023-09-30T11:11:45;20.40;99.90
5930;DHT22;2990;48.746;9.236;2023-09-30T11:14:17;20.50;99.90
5930;DHT22;2990;48.746;9.236;2023-09-30T11:16:43;20.60;1.00
5930;DHT22;2990;48.746;9.236;2023-09-30T11:19:10;20.80;99.90
5930;DHT22;2990;48.746;9.236;2023-09-30T11:21:36;20.50;99.90
5930;DHT22;2990;48.746;9.236;2023-09-30T11:24:02;20.40;1.00
5930;DHT22;2990;48.746;9.236;2023-09-30T11:26:31;20.40;1.00
5930;DHT22;2990;48.746;9.236;2023-09-30T11:29:08;20.30;1.00
5930;DHT22;2990;48.746;9.236;2023-09-30T11:31:36;20.20;1.00
5930;DHT22;2990;48.746;9.236;2023-09-30T11:34:02;20.10;1.00
5930;DHT22;2990;48.746;9.236;2023-09-30T11:36:34;20.10;1.00
5930;DHT22;2990;48.746;9.236;2023-09-30T11:39:00;19.90;1.00
5930;DHT22;2990;48.746;9.236;2023-09-30T11:41:38;19.70;1.00
5930;DHT22;2990;48.746;9.236;2023-09-30T11:44:09;19.70;1.00
5930;DHT22;2990;48.746;9.236;2023-09-30T11:46:58;19.70;1.00
5930;DHT22;2990;48.746;9.236;2023-09-30T11:51:53;19.90;1.00
5930;DHT22;2990;48.746;9.236;2023-09-30T11:54:19;19.70;1.00
5930;DHT22;2990;48.746;9.236;2023-09-30T11:56:44;19.70;1.00
5930;DHT22;2990;48.746;9.236;2023-09-30T11:59:12;19.70;99.90
5930;DHT22;2990;48.746;9.236;2023-09-30T12:01:38;19.60;99.90
5930;DHT22;2990;48.746;9.236;2023-09-30T12:04:04;19.60;1.00
5930;DHT22;2990;48.746;9.236;2023-09-30T12:06:30;19.70;1.00
5930;DHT22;2990;48.746;9.236;2023-09-30T12:08:55;19.70;1.00
5930;DHT22;2990;48.746;9.236;2023-09-30T12:11:21;19.70;99.90
5930;DHT22;2990;48.746;9.236;2023-09-30T12:13:49;19.70;1.00
5930;DHT22;2990;48.746;9.236;2023-09-30T12:16:16;19.80;1.00
5930;DHT22;2990;48.746;9.236;2023-09-30T12:18:42;19.90;1.00
5930;DHT22;2990;48.746;9.236;2023-09-30T12:21:11;20.00;1.00
5930;DHT22;2990;48.746;9.236;2023-09-30T12:23:39;20.20;1.00
5930;DHT22;2990;48.746;9.236;2023-09-30T12:26:05;20.30;99.90
5930;DHT22;2990;48.746;9.236;2023-09-30T12:28:32;20.40;99.90
5930;DHT22;2990;48.746;9.236;2023-09-30T12:30:59;20.70;99.90
5930;DHT22;2990;48.746;9.236;2023-09-30T12:33:24;20.70;99.90
5930;DHT22;2990;48.746;9.236;2023-09-30T12:35:50;20.80;99.90
5930;DHT22;2990;48.746;9.236;2023-09-30T12:38:17;21.00;99.90
5930;DHT22;2990;48.746;9.236;2023-09-30T12:40:42;21.20;99.90
5930;DHT22;2990;48.746;9.236;2023-09-30T12:43:09;21.20;99.90
5930;DHT22;2990;48.746;9.236;2023-09-30T12:45:35;21.30;99.90
5930;DHT22;2990;48.746;9.236;2023-09-30T12:48:04;21.30;99.90
5930;DHT22;2990;48.746;9.236;2023-09-30T12:50:29;21.00;99.90
5930;DHT22;2990;48.746;9.236;2023-09-30T12:52:55;20.90;99.90
5930;DHT22;2990;48.746;9.236;2023-09-30T12:55:20;20.70;99.90
5930;DHT22;2990;48.746;9.236;2023-09-30T12:57:46;20.40;99.90
5930;DHT22;2990;48.746;9.236;2023-09-30T13:00:12;20.20;99.90
5930;DHT22;2990;48.746;9.236;2023-09-30T13:02:41;20.10;99.90
5930;DHT22;2990;48.746;9.236;2023-09-30T13:05:06;20.10;99.90
5930;DHT22;2990;48.746;9.236;2023-09-30T13:07:32;20.20;99.90
5930;DHT22;2990;48.746;9.236;2023-09-30T13:09:58;20.30;99.90
5930;DHT22;2990;48.746;9.236;2023-09-30T13:12:26;20.50;99.90
5930;DHT22;2990;48.746;9.236;2023-09-30T13:14:52;20.70;99.90
5930;DHT22;2990;48.746;9.236;2023-09-30T13:17:22;20.80;99.90
5930;DHT22;2990;48.746;9.236;2023-09-30T13:19:47;20.80;99.90
5930;DHT22;2990;48.746;9.236;2023-09-30T13:22:13;20.80;99.90
5930;DHT22;2990;48.746;9.236;2023-09-30T13:24:38;20.70;99.90
5930;DHT22;2990;48.746;9.236;2023-09-30T13:27:05;20.70;99.90
5930;DHT22;2990;48.746;9.236;2023-09-30T13:29:31;20.50;99.90
5930;DHT22;2990;48.746;9.236;2023-09-30T13:31:56;20.60;99.90
5930;DHT22;2990;48.746;9.236;2023-09-30T13:34:22;20.70;99.90
5930;DHT22;2990;48.746;9.236;2023-09-30T13:36:48;20.80;99.90
5930;DHT22;2990;48.746;9.236;2023-09-30T13:39:14;20.90;99.90
5930;DHT22;2990;48.746;9.236;2023-09-30T13:41:39;20.80;99.90
5930;DHT22;2990;48.746;9.236;2023-09-30T13:44:06;21.00;99.90
5930;DHT22;2990;48.746;9.236;2023-09-30T13:46:31;21.20;99.90
5930;DHT22;2990;48.746;9.236;2023-09-30T13:48:57;21.30;99.90
5930;DHT22;2990;48.746;9.236;2023-09-30T13:51:23;21.30;99.90
5930;DHT22;2990;48.746;9.236;2023-09-30T13:53:48;21.20;99.90
5930;DHT22;2990;48.746;9.236;2023-09-30T13:56:14;21.00;99.90
5930;DHT22;2990;48.746;9.236;2023-09-30T13:58:39;20.90;99.90
5930;DHT22;2990;48.746;9.236;2023-09-30T14:01:05;20.70;99.90
5930;DHT22;2990;48.746;9.236;2023-09-30T14:03:32;20.50;99.90
5930;DHT22;2990;48.746;9.236;2023-09-30T14:05:59;20.30;99.90
5930;DHT22;2990;48.746;9.236;2023-09-30T14:08:25;20.20;99.90
5930;DHT22;2990;48.746;9.236;2023-09-30T14:10:50;20.10;99.90
5930;DHT22;2990;48.746;9.236;2023-09-30T14:13:19;20.20;99.90
5930;DHT22;2990;48.746;9.236;2023-09-30T14:15:45;20.10;99.90
5930;DHT22;2990;48.746;9.236;2023-09-30T14:18:12;20.10;99.90
5930;DHT22;2990;48.746;9.236;2023-09-30T14:20:37;20.10;99.90
5930;DHT22;2990;48.746;9.236;2023-09-30T14:23:03;20.20;99.90
5930;DHT22;2990;48.746;9.236;2023-09-30T14:25:29;20.20;99.90
5930;DHT22;2990;48.746;9.236;2023-09-30T14:27:54;20.20;99.90
5930;DHT22;2990;48.746;9.236;2023-09-30T14:30:21;20.10;99.90
5930;DHT22;2990;48.746;9.236;2023-09-30T14:32:47;20.20;99.90
5930;DHT22;2990;48.746;9.236;2023-09-30T14:35:12;20.20;99.90
5930;DHT22;2990;48.746;9.236;2023-09-30T14:37:39;20.20;99.90
5930;DHT22;2990;48.746;9.236;2023-09-30T14:40:05;20.10;99.90
5930;DHT22;2990;48.746;9.236;2023-09-30T14:42:36;20.10;99.90
5930;DHT22;2990;48.746;9.236;2023-09-30T14:45:02;20.00;99.90
5930;DHT22;2990;48.746;9.236;2023-09-30T14:47:27;19.80;99.90
5930;DHT22;2990;48.746;9.236;2023-09-30T14:49:54;19.80;99.90
5930;DHT22;2990;48.746;9.236;2023-09-30T14:52:19;19.80;99.90
5930;DHT22;2990;48.746;9.236;2023-09-30T14:54:46;19.80;99.90
5930;DHT22;2990;48.746;9.236;2023-09-30T14:57:11;19.80;99.90
5930;DHT22;2990;48.746;9.236;2023-09-30T14:59:39;19.80;99.90
5930;DHT22;2990;48.746;9.236;2023-09-30T15:02:06;19.90;99.90
5930;DHT22;2990;48.746;9.236;2023-09-30T15:04:34;19.90;99.90
5930;DHT22;2990;48.746;9.236;2023-09-30T15:06:59;19.90;99.90
5930;DHT22;2990;48.746;9.236;2023-09-30T15:09:26;19.90;99.90
5930;DHT22;2990;48.746;9.236;2023-09-30T15:11:52;19.80;99.90
5930;DHT22;2990;48.746;9.236;2023-09-30T15:14:18;19.70;99.90
5930;DHT22;2990;48.746;9.236;2023-09-30T15:16:44;19.60;99.90
5930;DHT22;2990;48.746;9.236;2023-09-30T15:19:09;19.50;99.90
5930;DHT22;2990;48.746;9.236;2023-09-30T15:21:35;19.50;99.90
5930;DHT22;2990;48.746;9.236;2023-09-30T15:24:01;19.40;99.90
5930;DHT22;2990;48.746;9.236;2023-09-30T15:26:28;19.30;99.90
5930;DHT22;2990;48.746;9.236;2023-09-30T15:28:54;19.20;99.90
5930;DHT22;2990;48.746;9.236;2023-09-30T15:31:20;19.20;99.90
5930;DHT22;2990;48.746;9.236;2023-09-30T15:33:46;19.20;99.90
5930;DHT22;2990;48.746;9.236;2023-09-30T15:36:12;19.20;99.90
5930;DHT22;2990;48.746;9.236;2023-09-30T15:38:39;19.20;99.90
5930;DHT22;2990;48.746;9.236;2023-09-30T15:41:04;19.20;99.90
5930;DHT22;2990;48.746;9.236;2023-09-30T15:43:31;19.10;99.90
5930;DHT22;2990;48.746;9.236;2023-09-30T15:45:58;19.10;99.90
5930;DHT22;2990;48.746;9.236;2023-09-30T15:48:24;19.10;99.90
5930;DHT22;2990;48.746;9.236;2023-09-30T15:50:50;19.20;99.90
5930;DHT22;2990;48.746;9.236;2023-09-30T15:53:15;19.10;99.90
5930;DHT22;2990;48.746;9.236;2023-09-30T15:55:41;19.10;99.90
5930;DHT22;2990;48.746;9.236;2023-09-30T15:58:07;19.00;99.90
5930;DHT22;2990;48.746;9.236;2023-09-30T16:00:37;19.00;99.90
5930;DHT22;2990;48.746;9.236;2023-09-30T16:03:07;19.00;99.90
5930;DHT22;2990;48.746;9.236;2023-09-30T16:05:34;19.00;99.90
5930;DHT22;2990;48.746;9.236;2023-09-30T16:08:06;19.00;99.90
5930;DHT22;2990;48.746;9.236;2023-09-30T16:10:32;18.90;99.90
5930;DHT22;2990;48.746;9.236;2023-09-30T16:12:57;18.90;99.90
5930;DHT22;2990;48.746;9.236;2023-09-30T16:15:23;18.80;99.90
5930;DHT22;2990;48.746;9.236;2023-09-30T16:17:51;18.80;99.90
5930;DHT22;2990;48.746;9.236;2023-09-30T16:20:17;18.80;99.90
5930;DHT22;2990;48.746;9.236;2023-09-30T16:22:49;18.70;99.90
5930;DHT22;2990;48.746;9.236;2023-09-30T16:25:15;18.60;99.90
5930;DHT22;2990;48.746;9.236;2023-09-30T16:27:40;18.50;99.90
5930;DHT22;2990;48.746;9.236;2023-09-30T16:30:06;18.50;99.90
5930;DHT22;2990;48.746;9.236;2023-09-30T16:32:32;18.40;99.90
5930;DHT22;2990;48.746;9.236;2023-09-30T16:35:05;18.40;99.90
5930;DHT22;2990;48.746;9.236;2023-09-30T16:37:36;18.30;99.90
5930;DHT22;2990;48.746;9.236;2023-09-30T16:40:02;18.30;99.90
5930;DHT22;2990;48.746;9.236;2023-09-30T16:42:28;18.20;99.90
5930;DHT22;2990;48.746;9.236;2023-09-30T16:44:57;18.10;99.90
5930;DHT22;2990;48.746;9.236;2023-09-30T16:47:23;18.00;99.90
5930;DHT22;2990;48.746;9.236;2023-09-30T16:49:49;18.00;99.90
5930;DHT22;2990;48.746;9.236;2023-09-30T16:52:14;17.90;99.90
5930;DHT22;2990;48.746;9.236;2023-09-30T16:54:40;17.90;99.90
5930;DHT22;2990;48.746;9.236;2023-09-30T16:57:06;17.80;99.90
5930;DHT22;2990;48.746;9.236;2023-09-30T16:59:32;17.80;99.90
5930;DHT22;2990;48.746;9.236;2023-09-30T17:01:58;17.70;99.90
5930;DHT22;2990;48.746;9.236;2023-09-30T17:04:24;17.70;99.90